Time;durP1;ratioP1;P1;durP2;ratioP2;P2;SDS_P1;SDS_P2;PMS_P1;PMS_P2;Temp;Humidity;BMP_temperature;BMP_pressure;BME280_temperature;BME280_humidity;BME280_pressure;Samples;Min_cycle;Max_cycle;Signal;HPM_P1;HPM_P2
2022/07/19 00:02:21;;;;;;;3.72;2.20;;;24.50;49.40;;;;;;5059300;28;20071;-69
2022/07/19 00:04:46;;;;;;;5.78;3.08;;;24.50;49.20;;;;;;5059740;28;20033;-69
2022/07/19 00:07:12;;;;;;;7.93;3.50;;;24.40;48.80;;;;;;5058395;28;20052;-71
2022/07/19 00:09:38;;;;;;;7.55;3.13;;;24.40;48.90;;;;;;5055836;28;20080;-70
2022/07/19 00:12:04;;;;;;;6.88;3.00;;;24.40;49.00;;;;;;5064894;28;20098;-70
2022/07/19 00:14:30;;;;;;;6.30;3.00;;;24.30;48.30;;;;;;5060635;28;20325;-70
2022/07/19 00:16:55;;;;;;;5.05;2.72;;;24.30;48.60;;;;;;5059035;28;20040;-70
2022/07/19 00:19:21;;;;;;;5.78;2.67;;;24.20;48.80;;;;;;5061258;28;20052;-70
2022/07/19 00:21:47;;;;;;;5.45;2.90;;;24.20;48.80;;;;;;5061616;28;20110;-71
2022/07/19 00:24:13;;;;;;;6.57;2.60;;;24.10;49.10;;;;;;5058612;28;20531;-69
2022/07/19 00:26:39;;;;;;;7.18;2.80;;;24.10;49.40;;;;;;5061766;28;20309;-71
2022/07/19 00:29:05;;;;;;;4.20;2.60;;;24.10;49.80;;;;;;5058405;28;20123;-70
2022/07/19 00:31:32;;;;;;;6.38;2.85;;;24.00;50.50;;;;;;5057370;28;20071;-70
2022/07/19 00:33:58;;;;;;;8.32;3.13;;;24.00;51.30;;;;;;5056559;28;20966;-69
2022/07/19 00:36:23;;;;;;;5.03;2.80;;;23.90;51.50;;;;;;5056974;28;20372;-69
2022/07/19 00:38:49;;;;;;;6.93;2.90;;;23.80;51.60;;;;;;5061126;28;20870;-69
2022/07/19 00:41:15;;;;;;;6.57;3.22;;;23.80;51.50;;;;;;5059129;28;20464;-70
2022/07/19 00:43:41;;;;;;;6.78;2.85;;;23.70;51.60;;;;;;5058791;28;20063;-71
2022/07/19 00:46:20;;;;;;;4.88;2.78;;;23.70;51.20;;;;;;5057350;28;20040;-70
2022/07/19 00:48:46;;;;;;;7.20;3.20;;;23.70;51.40;;;;;;5052018;28;20422;-71
2022/07/19 00:51:14;;;;;;;7.40;3.80;;;23.60;50.90;;;;;;5056764;28;20068;-70
2022/07/19 00:53:41;;;;;;;6.22;3.15;;;23.60;50.80;;;;;;5054861;28;20487;-70
2022/07/19 00:56:08;;;;;;;7.03;3.10;;;23.60;50.80;;;;;;5058417;28;20072;-69
2022/07/19 00:58:35;;;;;;;5.65;2.97;;;23.50;51.50;;;;;;5059111;28;20037;-70
2022/07/19 01:01:03;;;;;;;7.72;2.90;;;23.50;51.60;;;;;;5057652;28;20036;-70
2022/07/19 01:03:29;;;;;;;7.78;3.20;;;23.50;51.60;;;;;;5058962;28;20044;-69
2022/07/19 01:05:55;;;;;;;7.53;3.42;;;23.50;51.70;;;;;;5059642;28;20037;-70
2022/07/19 01:08:21;;;;;;;7.28;3.10;;;23.40;51.30;;;;;;5053553;28;20039;-70
2022/07/19 01:10:47;;;;;;;7.53;2.95;;;23.40;51.70;;;;;;5058155;28;20098;-70
2022/07/19 01:13:13;;;;;;;5.03;2.72;;;23.40;51.90;;;;;;5057568;28;20083;-70
2022/07/19 01:15:41;;;;;;;7.00;3.20;;;23.30;51.80;;;;;;5058201;28;20117;-71
2022/07/19 01:18:07;;;;;;;6.20;3.33;;;23.30;52.20;;;;;;5059867;28;20139;-70
2022/07/19 01:20:33;;;;;;;7.95;3.60;;;23.30;51.90;;;;;;5059876;28;20487;-69
2022/07/19 01:22:59;;;;;;;8.18;3.30;;;23.30;51.50;;;;;;5056998;28;20043;-70
2022/07/19 01:25:30;;;;;;;7.72;4.10;;;23.20;51.90;;;;;;5055942;28;20454;-70
2022/07/19 01:27:56;;;;;;;7.28;3.83;;;23.10;51.20;;;;;;5058021;28;20036;-69
2022/07/19 01:30:25;;;;;;;7.57;3.28;;;23.20;51.10;;;;;;5061448;28;20492;-70
2022/07/19 01:32:51;;;;;;;6.45;3.38;;;23.10;51.90;;;;;;5057615;28;20043;-69
2022/07/19 01:35:18;;;;;;;9.18;3.47;;;23.10;52.60;;;;;;5058399;28;20041;-69
2022/07/19 01:37:45;;;;;;;8.48;3.63;;;23.00;52.40;;;;;;5056736;28;20036;-71
2022/07/19 01:40:14;;;;;;;7.63;3.50;;;23.00;52.50;;;;;;5059113;28;20051;-69
2022/07/19 01:42:40;;;;;;;5.25;3.10;;;23.00;52.70;;;;;;5057091;28;20032;-69
2022/07/19 01:45:08;;;;;;;4.82;2.70;;;23.00;52.90;;;;;;5054446;28;20043;-71
2022/07/19 01:47:34;;;;;;;6.22;3.08;;;22.90;53.70;;;;;;5051448;28;20480;-70
2022/07/19 01:50:00;;;;;;;6.55;3.20;;;22.90;53.50;;;;;;5053735;28;20496;-70
2022/07/19 01:52:25;;;;;;;8.00;3.38;;;22.90;53.60;;;;;;5056794;28;20075;-71
2022/07/19 01:54:51;;;;;;;6.15;3.45;;;22.80;52.80;;;;;;5058967;28;20041;-70
2022/07/19 01:57:16;;;;;;;6.88;3.47;;;22.80;52.60;;;;;;5057476;28;20605;-70
2022/07/19 01:59:42;;;;;;;6.10;3.03;;;22.80;52.60;;;;;;5062593;28;20047;-70
2022/07/19 02:02:08;;;;;;;6.57;2.90;;;22.80;53.40;;;;;;5057664;28;20582;-71
2022/07/19 02:04:34;;;;;;;6.57;3.25;;;22.70;53.90;;;;;;5058686;28;20040;-70
2022/07/19 02:06:59;;;;;;;6.65;3.35;;;22.70;53.90;;;;;;5058337;28;20041;-71
2022/07/19 02:09:25;;;;;;;6.85;3.72;;;22.60;53.80;;;;;;5057460;28;20052;-69
2022/07/19 02:11:51;;;;;;;7.10;3.67;;;22.60;53.00;;;;;;5056612;28;20408;-70
2022/07/19 02:14:17;;;;;;;8.23;3.42;;;22.60;53.00;;;;;;5063541;28;20388;-70
2022/07/19 02:16:43;;;;;;;8.63;3.63;;;22.60;52.90;;;;;;5063689;28;20124;-69
2022/07/19 02:19:10;;;;;;;6.05;2.95;;;22.60;53.30;;;;;;5063239;28;20119;-69
2022/07/19 02:21:37;;;;;;;7.47;3.42;;;22.50;53.80;;;;;;5066354;28;20523;-70
2022/07/19 02:24:04;;;;;;;7.13;3.33;;;22.50;54.60;;;;;;5061023;28;20029;-70
2022/07/19 02:26:30;;;;;;;7.88;3.42;;;22.40;54.50;;;;;;5060375;28;20503;-71
2022/07/19 02:28:55;;;;;;;6.47;3.60;;;22.40;54.30;;;;;;5055110;28;20032;-69
2022/07/19 02:31:22;;;;;;;7.07;3.22;;;22.40;54.10;;;;;;5061953;28;20043;-69
2022/07/19 02:33:47;;;;;;;8.77;2.92;;;22.40;54.30;;;;;;5062894;28;20029;-70
2022/07/19 02:36:13;;;;;;;6.35;3.20;;;22.30;55.00;;;;;;5062086;28;20036;-70
2022/07/19 02:38:39;;;;;;;6.10;2.97;;;22.30;55.50;;;;;;5062135;28;20036;-70
2022/07/19 02:41:05;;;;;;;7.65;3.30;;;22.20;56.10;;;;;;5061804;28;20032;-69
2022/07/19 02:43:31;;;;;;;6.20;3.08;;;22.10;56.40;;;;;;5061066;28;20071;-69
2022/07/19 02:45:56;;;;;;;8.13;3.25;;;22.10;56.40;;;;;;5057668;28;20043;-70
2022/07/19 02:48:22;;;;;;;5.43;2.90;;;22.10;55.90;;;;;;5059256;28;20060;-70
2022/07/19 02:50:48;;;;;;;7.40;3.33;;;22.10;55.60;;;;;;5060938;28;20174;-69
2022/07/19 02:53:13;;;;;;;6.50;3.00;;;22.10;55.80;;;;;;5065438;28;20115;-71
2022/07/19 02:55:39;;;;;;;6.03;2.78;;;22.00;56.30;;;;;;5063238;28;20093;-69
2022/07/19 02:58:05;;;;;;;6.40;3.28;;;22.00;57.20;;;;;;5062651;28;20058;-69
2022/07/19 03:00:31;;;;;;;5.80;2.97;;;22.00;57.80;;;;;;5057762;28;20029;-71
2022/07/19 03:03:43;;;;;;;10.68;3.40;;;21.90;58.00;;;;;;5062166;28;20037;-69
2022/07/19 03:05:46;;;;;;;6.93;3.28;;;21.90;58.00;;;;;;5060807;28;20395;-70
2022/07/19 03:08:12;;;;;;;5.50;3.13;;;21.80;58.90;;;;;;5059220;28;20036;-69
2022/07/19 03:10:37;;;;;;;7.63;3.40;;;21.70;59.60;;;;;;5059951;28;20450;-70
2022/07/19 03:13:03;;;;;;;6.15;3.70;;;21.70;59.90;;;;;;5059566;28;20048;-69
2022/07/19 03:15:29;;;;;;;5.28;3.10;;;21.60;60.40;;;;;;5059378;28;20028;-69
2022/07/19 03:17:54;;;;;;;9.05;3.92;;;21.60;60.70;;;;;;5060738;28;20205;-69
2022/07/19 03:20:20;;;;;;;7.50;3.90;;;21.50;60.60;;;;;;5057998;28;20037;-70
2022/07/19 03:22:46;;;;;;;10.32;3.78;;;21.50;60.70;;;;;;5057903;28;20036;-70
2022/07/19 03:25:11;;;;;;;9.75;3.25;;;21.40;59.90;;;;;;5060214;28;20541;-69
2022/07/19 03:27:37;;;;;;;6.32;3.25;;;21.50;59.30;;;;;;5061733;28;20441;-70
2022/07/19 03:30:04;;;;;;;7.63;3.60;;;21.40;59.30;;;;;;5061851;28;20072;-70
2022/07/19 03:32:30;;;;;;;9.43;3.63;;;21.40;59.50;;;;;;5065534;28;20032;-71
2022/07/19 03:34:56;;;;;;;8.77;3.60;;;21.50;59.30;;;;;;5060803;28;20072;-70
2022/07/19 03:37:21;;;;;;;7.00;3.40;;;21.40;58.80;;;;;;5059890;28;20468;-70
2022/07/19 03:39:47;;;;;;;7.32;3.78;;;21.40;59.20;;;;;;5067823;28;20478;-70
2022/07/19 03:42:13;;;;;;;7.20;3.42;;;21.40;59.30;;;;;;5060017;28;20309;-69
2022/07/19 03:44:38;;;;;;;9.20;3.65;;;21.40;59.60;;;;;;5058168;28;20041;-70
2022/07/19 03:47:04;;;;;;;7.40;3.50;;;21.40;58.30;;;;;;5062028;28;20127;-71
2022/07/19 03:49:30;;;;;;;5.93;3.38;;;21.40;58.50;;;;;;5060285;28;20036;-70
2022/07/19 03:51:56;;;;;;;9.40;4.18;;;21.40;58.90;;;;;;5059887;28;20024;-70
2022/07/19 03:54:21;;;;;;;8.45;3.95;;;21.40;58.80;;;;;;5061113;28;20498;-69
2022/07/19 03:56:47;;;;;;;9.10;3.72;;;21.30;58.80;;;;;;5061797;28;20113;-69
2022/07/19 03:59:13;;;;;;;13.50;4.45;;;21.30;59.10;;;;;;5059816;28;20065;-70
2022/07/19 04:01:40;;;;;;;11.20;4.20;;;21.40;59.20;;;;;;5060012;28;20025;-69
2022/07/19 04:04:06;;;;;;;8.10;3.70;;;21.40;58.80;;;;;;5060228;28;20044;-70
2022/07/19 04:06:32;;;;;;;10.68;3.78;;;21.40;58.80;;;;;;5059461;28;20037;-70
2022/07/19 04:08:58;;;;;;;10.68;4.13;;;21.40;58.90;;;;;;5050807;28;20091;-70
2022/07/19 04:11:24;;;;;;;11.35;3.97;;;21.50;58.70;;;;;;5057441;28;20032;-70
2022/07/19 04:13:50;;;;;;;16.40;4.60;;;21.50;59.10;;;;;;5058613;28;20044;-70
2022/07/19 04:16:15;;;;;;;9.43;4.18;;;21.50;59.10;;;;;;5061148;28;20043;-69
2022/07/19 04:18:41;;;;;;;9.85;4.38;;;21.50;59.20;;;;;;5057978;28;20060;-69
2022/07/19 04:21:08;;;;;;;8.27;3.80;;;21.60;59.30;;;;;;5059009;28;20044;-70
2022/07/19 04:23:33;;;;;;;12.23;4.70;;;21.60;59.60;;;;;;5059409;28;20040;-69
2022/07/19 04:25:59;;;;;;;10.57;4.50;;;21.60;59.40;;;;;;5060400;28;20032;-71
2022/07/19 04:28:25;;;;;;;10.30;4.85;;;21.60;59.30;;;;;;5052822;28;20653;-71
2022/07/19 04:30:50;;;;;;;11.57;4.50;;;21.60;59.40;;;;;;5058800;28;20033;-70
2022/07/19 04:33:17;;;;;;;12.18;4.80;;;21.60;59.70;;;;;;5056551;28;20410;-70
2022/07/19 04:35:43;;;;;;;12.18;4.28;;;21.60;59.70;;;;;;5065423;28;20089;-69
2022/07/19 04:38:09;;;;;;;10.75;4.55;;;21.70;59.90;;;;;;5059257;28;20048;-71
2022/07/19 04:40:35;;;;;;;7.43;4.25;;;21.70;59.90;;;;;;5059989;28;20039;-69
2022/07/19 04:43:01;;;;;;;9.80;4.28;;;21.80;59.90;;;;;;5059134;28;20612;-69
2022/07/19 04:45:27;;;;;;;6.03;3.72;;;21.80;59.80;;;;;;5060380;28;20042;-70
2022/07/19 04:47:53;;;;;;;11.02;4.68;;;21.80;60.00;;;;;;5059327;28;20201;-69
2022/07/19 04:50:19;;;;;;;7.88;3.92;;;22.00;60.00;;;;;;5058449;28;20612;-70
2022/07/19 04:52:45;;;;;;;8.13;3.80;;;22.00;60.00;;;;;;5059761;28;20040;-70
2022/07/19 04:55:10;;;;;;;7.72;4.13;;;22.10;59.60;;;;;;5058286;28;20064;-70
2022/07/19 04:57:36;;;;;;;15.10;5.55;;;22.10;59.60;;;;;;5058198;28;20512;-69
2022/07/19 05:00:05;;;;;;;10.77;5.93;;;22.20;59.00;;;;;;5059414;28;20028;-70
2022/07/19 05:02:31;;;;;;;13.63;6.43;;;22.20;58.00;;;;;;5056783;28;20144;-69
2022/07/19 05:04:56;;;;;;;8.02;4.07;;;22.20;57.50;;;;;;5063780;28;20036;-71
2022/07/19 05:07:22;;;;;;;6.45;4.03;;;22.30;57.70;;;;;;5059157;28;20043;-70
2022/07/19 05:09:48;;;;;;;10.25;4.93;;;22.40;57.60;;;;;;5061923;28;20051;-70
2022/07/19 05:12:13;;;;;;;14.38;6.13;;;22.60;57.40;;;;;;5054594;28;20036;-70
2022/07/19 05:14:39;;;;;;;12.07;5.50;;;22.70;57.00;;;;;;5066944;28;20034;-70
2022/07/19 05:17:05;;;;;;;12.40;6.05;;;22.70;56.40;;;;;;5062773;28;20429;-69
2022/07/19 05:19:30;;;;;;;12.63;5.72;;;22.80;55.90;;;;;;5059120;28;20140;-70
2022/07/19 05:21:56;;;;;;;10.23;4.68;;;23.00;55.20;;;;;;5058021;28;20356;-69
2022/07/19 05:24:22;;;;;;;16.50;5.20;;;23.10;55.40;;;;;;5057864;28;20029;-70
2022/07/19 05:26:48;;;;;;;10.88;5.13;;;23.30;54.40;;;;;;5056819;28;20044;-70
2022/07/19 05:29:14;;;;;;;13.68;5.88;;;23.60;54.00;;;;;;5055647;28;20348;-70
2022/07/19 05:31:39;;;;;;;16.95;5.70;;;24.50;52.00;;;;;;5062342;28;20048;-69
2022/07/19 05:34:05;;;;;;;10.50;4.60;;;25.70;48.50;;;;;;5058616;28;20029;-68
2022/07/19 05:36:31;;;;;;;12.23;4.75;;;26.80;46.00;;;;;;5059124;28;20458;-70
2022/07/19 05:38:56;;;;;;;13.23;5.38;;;27.80;43.90;;;;;;5056174;28;20043;-71
2022/07/19 05:41:23;;;;;;;12.60;4.80;;;28.60;42.40;;;;;;5057902;28;20025;-69
2022/07/19 05:43:50;;;;;;;15.80;6.25;;;29.20;41.00;;;;;;5058662;28;20020;-71
2022/07/19 05:46:16;;;;;;;11.40;4.20;;;29.70;41.50;;;;;;5054982;28;20040;-70
2022/07/19 05:48:42;;;;;;;11.68;5.13;;;30.20;41.20;;;;;;5063698;28;20037;-69
2022/07/19 05:51:08;;;;;;;16.30;5.20;;;30.50;40.10;;;;;;5061242;28;20211;-69
2022/07/19 05:53:35;;;;;;;18.25;5.85;;;30.70;39.60;;;;;;5062291;28;20033;-69
2022/07/19 05:56:01;;;;;;;14.07;4.70;;;30.70;38.40;;;;;;5059612;28;20119;-71
2022/07/19 05:58:26;;;;;;;14.68;6.20;;;30.80;39.60;;;;;;5061539;28;20040;-70
2022/07/19 06:03:36;;;;;;;15.75;6.05;;;30.20;39.80;;;;;;5062679;28;20332;-69
2022/07/19 06:06:02;;;;;;;14.60;6.03;;;29.30;41.10;;;;;;5065627;28;20044;-70
2022/07/19 06:08:28;;;;;;;15.02;6.03;;;28.70;43.20;;;;;;5062475;28;20025;-69
2022/07/19 06:10:53;;;;;;;9.65;4.80;;;28.00;44.50;;;;;;5060531;28;20053;-69
2022/07/19 06:13:19;;;;;;;12.10;4.90;;;27.70;45.60;;;;;;5065995;28;20055;-70
2022/07/19 06:15:45;;;;;;;8.10;4.28;;;27.60;47.20;;;;;;5061103;28;20446;-69
2022/07/19 06:18:11;;;;;;;11.90;4.78;;;27.40;47.40;;;;;;5066781;28;20105;-71
2022/07/19 06:20:36;;;;;;;9.10;3.83;;;27.40;47.00;;;;;;5062152;28;20036;-69
2022/07/19 06:23:02;;;;;;;9.45;4.32;;;27.40;47.70;;;;;;5063288;28;20032;-69
2022/07/19 06:25:28;;;;;;;8.55;4.05;;;27.50;48.10;;;;;;5061540;28;20028;-69
2022/07/19 06:27:54;;;;;;;10.75;4.00;;;27.40;47.70;;;;;;5065512;28;20040;-70
2022/07/19 06:30:19;;;;;;;7.18;3.58;;;27.40;47.30;;;;;;5061239;28;20823;-69
2022/07/19 06:32:45;;;;;;;14.63;4.82;;;27.60;48.50;;;;;;5059226;28;20024;-69
2022/07/19 06:35:10;;;;;;;11.23;3.90;;;27.70;48.90;;;;;;5061766;28;20045;-70
2022/07/19 06:37:36;;;;;;;10.68;4.30;;;27.80;49.00;;;;;;5061798;28;20476;-70
2022/07/19 06:40:02;;;;;;;9.82;3.72;;;28.00;46.90;;;;;;5061249;28;20119;-69
2022/07/19 06:42:28;;;;;;;9.40;3.67;;;28.10;47.00;;;;;;5057167;28;20376;-70
2022/07/19 06:44:53;;;;;;;7.10;2.95;;;28.30;47.00;;;;;;5066137;28;20312;-71
2022/07/19 06:47:19;;;;;;;11.25;3.30;;;28.40;46.30;;;;;;5059587;28;20119;-71
2022/07/19 06:49:45;;;;;;;11.10;3.90;;;28.60;45.90;;;;;;5058828;28;20539;-70
2022/07/19 06:52:10;;;;;;;10.50;3.25;;;28.60;45.30;;;;;;5058395;28;20480;-70
2022/07/19 06:54:36;;;;;;;12.30;3.00;;;28.80;44.70;;;;;;5060340;28;20060;-70
2022/07/19 06:57:02;;;;;;;8.95;3.47;;;28.90;44.40;;;;;;5060228;28;20045;-71
2022/07/19 06:59:27;;;;;;;7.78;3.33;;;29.00;43.30;;;;;;5056601;28;20036;-70
2022/07/19 07:01:53;;;;;;;10.75;3.10;;;29.10;42.10;;;;;;5058579;28;20029;-69
2022/07/19 07:04:19;;;;;;;9.30;3.03;;;29.30;41.70;;;;;;5066885;28;20043;-71
2022/07/19 07:06:44;;;;;;;10.85;3.20;;;29.40;40.80;;;;;;5061156;28;20037;-71
2022/07/19 07:09:10;;;;;;;7.82;3.00;;;29.50;40.80;;;;;;5057835;28;20430;-75
2022/07/19 07:11:36;;;;;;;7.68;2.92;;;29.60;40.90;;;;;;5058331;28;20035;-73
2022/07/19 07:14:01;;;;;;;7.28;3.38;;;29.80;39.60;;;;;;5059480;28;20420;-72
2022/07/19 07:16:27;;;;;;;8.30;3.00;;;29.90;39.70;;;;;;5061222;28;20427;-73
2022/07/19 07:18:53;;;;;;;6.10;3.00;;;30.10;38.90;;;;;;5061930;28;20124;-73
2022/07/19 07:21:18;;;;;;;6.32;3.17;;;30.30;38.20;;;;;;5062355;28;20051;-75
2022/07/19 07:23:44;;;;;;;7.07;3.13;;;30.40;37.70;;;;;;5060933;28;20032;-81
2022/07/19 07:26:11;;;;;;;7.22;3.17;;;30.50;37.20;;;;;;5058591;28;20033;-79
2022/07/19 07:28:37;;;;;;;11.73;3.17;;;30.50;37.20;;;;;;5060951;28;20025;-77
2022/07/19 07:31:02;;;;;;;10.05;3.13;;;30.60;36.60;;;;;;5065605;28;20348;-80
2022/07/19 07:33:28;;;;;;;6.07;2.90;;;30.80;35.90;;;;;;5058766;28;20043;-81
2022/07/19 07:35:54;;;;;;;8.50;3.13;;;31.00;36.20;;;;;;5060653;28;20039;-81
2022/07/19 07:38:19;;;;;;;6.72;2.92;;;31.10;36.40;;;;;;5050813;28;20272;-78
2022/07/19 07:40:46;;;;;;;7.38;3.38;;;31.10;35.00;;;;;;5061101;28;20665;-78
2022/07/19 07:43:11;;;;;;;6.57;2.95;;;31.30;35.70;;;;;;5062246;28;20566;-79
2022/07/19 07:45:37;;;;;;;8.23;3.30;;;31.40;36.30;;;;;;5059206;28;20043;-77
2022/07/19 07:48:03;;;;;;;6.45;3.05;;;31.50;35.40;;;;;;5068202;28;20495;-77
2022/07/19 07:50:29;;;;;;;6.15;3.03;;;31.70;34.90;;;;;;5065070;28;20177;-83
2022/07/19 07:52:54;;;;;;;6.82;3.10;;;31.70;33.20;;;;;;5062716;28;20107;-80
2022/07/19 07:55:20;;;;;;;7.85;3.60;;;32.00;33.80;;;;;;5063098;28;20558;-80
2022/07/19 07:57:46;;;;;;;11.93;3.55;;;32.10;32.10;;;;;;5059199;28;20051;-78
2022/07/19 08:00:13;;;;;;;7.07;3.10;;;32.30;32.50;;;;;;5059497;28;20060;-77
2022/07/19 08:02:43;;;;;;;7.78;3.33;;;32.40;32.20;;;;;;5059507;28;20025;-82
2022/07/19 08:05:09;;;;;;;8.77;3.47;;;32.60;31.30;;;;;;5061618;28;20036;-79
2022/07/19 08:07:36;;;;;;;8.65;3.63;;;32.60;31.60;;;;;;5053992;28;20040;-81
2022/07/19 08:10:05;;;;;;;9.68;3.25;;;32.80;32.30;;;;;;5060111;28;20151;-77
2022/07/19 08:12:31;;;;;;;9.23;3.08;;;32.90;31.40;;;;;;5060676;28;20036;-86
2022/07/19 08:14:57;;;;;;;6.80;3.65;;;33.10;31.80;;;;;;5061447;28;20595;-79
2022/07/19 08:17:22;;;;;;;7.18;3.50;;;33.10;32.20;;;;;;5063678;28;20091;-76
2022/07/19 08:19:48;;;;;;;6.63;3.42;;;33.10;31.70;;;;;;5057126;28;20063;-77
2022/07/19 08:22:20;;;;;;;7.43;3.40;;;33.40;32.00;;;;;;5058658;28;20040;-80
2022/07/19 08:24:46;;;;;;;7.32;3.47;;;33.40;31.00;;;;;;5058334;28;20033;-76
2022/07/19 08:27:12;;;;;;;7.07;3.20;;;33.50;31.00;;;;;;5056831;28;20032;-78
2022/07/19 08:29:38;;;;;;;10.55;3.70;;;33.70;31.30;;;;;;5062575;28;20483;-77
2022/07/19 08:32:05;;;;;;;7.10;3.15;;;33.80;29.30;;;;;;5059651;28;20040;-76
2022/07/19 08:34:31;;;;;;;9.38;3.60;;;34.00;28.40;;;;;;5071143;28;20571;-76
2022/07/19 08:36:56;;;;;;;10.85;3.75;;;34.00;28.40;;;;;;5067624;28;20037;-81
2022/07/19 08:39:22;;;;;;;8.55;3.05;;;34.00;28.10;;;;;;5062440;28;20033;-77
2022/07/19 08:41:48;;;;;;;8.02;3.60;;;34.20;27.70;;;;;;5061932;28;20032;-78
2022/07/19 08:44:16;;;;;;;8.20;3.33;;;34.40;27.70;;;;;;5061767;28;20513;-80
2022/07/19 08:46:42;;;;;;;7.70;3.05;;;34.50;28.30;;;;;;5074744;28;20063;-78
2022/07/19 08:49:14;;;;;;;7.53;3.53;;;34.70;28.50;;;;;;5058990;28;20075;-80
2022/07/19 08:51:42;;;;;;;5.43;3.00;;;34.70;28.00;;;;;;5058214;28;20037;-76
2022/07/19 08:54:08;;;;;;;12.77;3.47;;;34.80;28.20;;;;;;5058672;28;20032;-77
2022/07/19 08:59:18;;;;;;;8.63;3.38;;;34.90;27.10;;;;;;5063312;28;20096;-77
2022/07/19 09:01:44;;;;;;;7.47;3.45;;;34.90;27.00;;;;;;5062073;28;20055;-82
2022/07/19 09:04:11;;;;;;;10.68;3.78;;;35.20;27.10;;;;;;5059722;28;20044;-81
2022/07/19 09:06:47;;;;;;;9.55;3.60;;;35.50;27.90;;;;;;5058375;28;20059;-77
2022/07/19 09:09:16;;;;;;;10.10;3.50;;;35.60;28.90;;;;;;5055752;28;20055;-82
2022/07/19 09:11:51;;;;;;;7.57;3.40;;;35.60;29.20;;;;;;5055570;28;20032;-78
2022/07/19 09:14:28;;;;;;;9.27;3.50;;;35.50;28.70;;;;;;5062851;28;20043;-77
2022/07/19 09:17:06;;;;;;;8.27;3.50;;;35.50;28.60;;;;;;5059534;28;20533;-76
2022/07/19 09:19:37;;;;;;;9.40;3.47;;;35.40;27.80;;;;;;5058834;28;20066;-80
2022/07/19 09:22:04;;;;;;;12.07;3.28;;;35.40;28.00;;;;;;5055609;28;20056;-77
2022/07/19 09:24:33;;;;;;;8.57;3.67;;;35.70;28.30;;;;;;5056621;28;20043;-78
2022/07/19 09:27:03;;;;;;;8.25;3.28;;;35.80;27.60;;;;;;5055940;28;20148;-79
2022/07/19 09:29:30;;;;;;;13.07;3.67;;;35.80;28.10;;;;;;5054676;28;20583;-78
2022/07/19 09:32:10;;;;;;;10.32;3.80;;;35.80;27.50;;;;;;5054845;28;20117;-77
2022/07/19 09:34:41;;;;;;;11.65;3.65;;;35.70;27.30;;;;;;5057789;28;20066;-78
2022/07/19 09:37:20;;;;;;;10.48;3.50;;;35.70;27.70;;;;;;5050726;28;20372;-79
2022/07/19 09:39:49;;;;;;;13.20;3.70;;;35.90;28.40;;;;;;5056940;28;20513;-78
2022/07/19 09:42:34;;;;;;;11.32;3.38;;;36.00;27.50;;;;;;5057030;28;20068;-77
2022/07/19 09:45:05;;;;;;;10.32;3.53;;;36.00;27.70;;;;;;5059265;28;20029;-78
2022/07/19 09:47:37;;;;;;;10.38;4.32;;;36.00;27.70;;;;;;5056722;28;20051;-82
2022/07/19 09:50:08;;;;;;;8.70;3.92;;;35.80;28.10;;;;;;5057592;28;20127;-77
2022/07/19 09:52:35;;;;;;;6.68;3.63;;;35.70;28.00;;;;;;5060065;28;20178;-80
2022/07/19 09:55:05;;;;;;;6.60;3.30;;;35.90;27.80;;;;;;5057003;28;20036;-80
2022/07/19 09:57:35;;;;;;;12.55;4.28;;;36.10;28.20;;;;;;5054281;28;20400;-78
2022/07/19 10:00:04;;;;;;;7.57;3.60;;;36.10;27.80;;;;;;5060925;28;20127;-79
2022/07/19 10:02:35;;;;;;;10.65;3.60;;;36.40;27.60;;;;;;5058381;28;20119;-78
2022/07/19 10:05:06;;;;;;;8.52;3.88;;;36.50;27.40;;;;;;5053306;28;20123;-76
2022/07/19 10:07:32;;;;;;;11.55;3.92;;;36.60;27.00;;;;;;5060906;28;20040;-79
2022/07/19 10:10:04;;;;;;;8.57;3.47;;;36.70;27.10;;;;;;5052756;28;20059;-80
2022/07/19 10:12:31;;;;;;;12.82;4.15;;;36.60;26.80;;;;;;5053939;28;20070;-76
2022/07/19 10:14:56;;;;;;;10.13;3.50;;;36.60;26.10;;;;;;5055534;28;20111;-76
2022/07/19 10:17:30;;;;;;;9.88;3.55;;;36.80;26.40;;;;;;5056508;28;20120;-73
2022/07/19 10:19:58;;;;;;;10.38;3.45;;;37.00;26.10;;;;;;5053736;28;20029;-73
2022/07/19 10:22:25;;;;;;;9.40;3.75;;;37.10;26.90;;;;;;5054039;28;20059;-74
2022/07/19 10:24:54;;;;;;;8.43;3.45;;;37.30;26.20;;;;;;5051532;28;20071;-73
2022/07/19 10:27:26;;;;;;;11.00;3.70;;;37.10;26.30;;;;;;5053367;28;20074;-74
2022/07/19 10:29:52;;;;;;;9.95;4.28;;;37.00;26.10;;;;;;5058895;28;20072;-75
2022/07/19 10:32:26;;;;;;;7.97;3.80;;;36.90;26.30;;;;;;5051003;28;20059;-74
2022/07/19 10:35:20;;;;;;;8.65;3.90;;;37.20;26.30;;;;;;5063074;28;20127;-73
2022/07/19 10:37:50;;;;;;;8.05;3.33;;;37.30;26.40;;;;;;5056797;28;21112;-74
2022/07/19 10:40:41;;;;;;;17.70;4.32;;;37.40;26.00;;;;;;5063670;28;20048;-74
2022/07/19 10:43:09;;;;;;;15.45;3.90;;;37.40;25.40;;;;;;5055155;28;20400;-74
2022/07/19 10:45:36;;;;;;;12.27;4.07;;;37.40;25.20;;;;;;5059472;28;20037;-74
2022/07/19 10:48:05;;;;;;;8.18;3.05;;;37.40;24.60;;;;;;5059266;28;20388;-74
2022/07/19 10:50:52;;;;;;;8.75;3.40;;;37.50;24.80;;;;;;5061521;28;20037;-75
2022/07/19 10:53:42;;;;;;;11.60;3.67;;;37.50;24.40;;;;;;5059526;28;20075;-74
2022/07/19 10:56:14;;;;;;;10.98;3.50;;;37.50;24.90;;;;;;5057104;28;20374;-75
2022/07/19 10:58:52;;;;;;;15.70;4.13;;;37.70;24.70;;;;;;5062684;28;20048;-75
2022/07/19 11:01:19;;;;;;;8.00;3.45;;;37.90;24.90;;;;;;5058757;28;20414;-75
2022/07/19 11:03:49;;;;;;;9.27;3.47;;;37.60;24.00;;;;;;5059203;28;20120;-73
2022/07/19 11:06:26;;;;;;;9.75;3.70;;;37.50;24.10;;;;;;5055858;28;20044;-74
2022/07/19 11:08:57;;;;;;;10.05;3.45;;;37.90;24.20;;;;;;5064084;28;20029;-75
2022/07/19 11:11:25;;;;;;;10.38;3.35;;;38.00;23.10;;;;;;5058019;28;20039;-75
2022/07/19 11:13:54;;;;;;;8.95;3.28;;;38.10;21.40;;;;;;5060183;28;20098;-74
2022/07/19 11:16:21;;;;;;;7.95;3.38;;;38.20;21.70;;;;;;5054014;28;20040;-76
2022/07/19 11:18:47;;;;;;;7.93;3.97;;;38.60;21.60;;;;;;5055509;28;20055;-75
2022/07/19 11:21:15;;;;;;;8.82;3.50;;;38.80;21.30;;;;;;5060755;28;20032;-76
2022/07/19 11:23:42;;;;;;;8.50;3.45;;;38.90;20.90;;;;;;5055753;28;20086;-77
2022/07/19 11:26:21;;;;;;;11.07;2.80;;;38.80;21.00;;;;;;5057746;28;20064;-77
2022/07/19 11:28:47;;;;;;;9.55;3.10;;;39.00;20.30;;;;;;5066837;28;20055;-75
2022/07/19 11:31:24;;;;;;;9.10;3.40;;;38.70;19.60;;;;;;5056538;28;20043;-75
2022/07/19 11:33:53;;;;;;;10.15;2.95;;;38.90;19.80;;;;;;5061713;28;20028;-75
2022/07/19 11:36:20;;;;;;;14.75;3.40;;;38.80;20.00;;;;;;5059087;28;20553;-76
2022/07/19 11:38:50;;;;;;;8.07;3.15;;;38.80;19.80;;;;;;5062094;28;20040;-78
2022/07/19 11:41:25;;;;;;;7.15;3.10;;;38.80;20.10;;;;;;5056680;28;20590;-75
2022/07/19 11:44:01;;;;;;;11.88;3.25;;;38.80;20.40;;;;;;5057852;28;20115;-75
2022/07/19 11:46:43;;;;;;;8.10;3.00;;;38.80;19.80;;;;;;5050967;28;20635;-74
2022/07/19 11:49:12;;;;;;;10.48;3.30;;;39.10;19.50;;;;;;5050604;28;20367;-75
2022/07/19 11:51:38;;;;;;;11.77;3.70;;;39.00;19.70;;;;;;5057139;28;20059;-76
2022/07/19 11:54:06;;;;;;;9.75;3.80;;;39.00;19.80;;;;;;5058335;28;20063;-76
2022/07/19 11:56:35;;;;;;;10.02;3.55;;;39.00;19.70;;;;;;5055279;28;20377;-74
2022/07/19 11:59:05;;;;;;;10.38;3.30;;;39.00;19.50;;;;;;5058830;28;20040;-75
2022/07/19 12:01:37;;;;;;;12.45;3.83;;;39.00;19.90;;;;;;5062339;28;20115;-76
2022/07/19 12:04:07;;;;;;;7.40;3.40;;;39.00;19.50;;;;;;5054584;28;20426;-73
2022/07/19 12:06:36;;;;;;;7.15;3.03;;;39.30;19.50;;;;;;5051692;28;20040;-74
2022/07/19 12:09:07;;;;;;;13.57;3.95;;;39.50;20.20;;;;;;5057355;28;20496;-74
2022/07/19 12:11:48;;;;;;;11.15;3.15;;;39.50;20.00;;;;;;5057813;28;20032;-73
2022/07/19 12:14:19;;;;;;;8.75;3.20;;;39.40;20.10;;;;;;5050672;28;20037;-76
2022/07/19 12:16:46;;;;;;;12.13;3.83;;;39.40;19.80;;;;;;5057434;28;20048;-74
2022/07/19 12:19:14;;;;;;;10.70;4.00;;;39.20;19.90;;;;;;5057533;28;20093;-74
2022/07/19 12:21:41;;;;;;;9.45;3.45;;;39.30;19.50;;;;;;5057309;28;20085;-76
2022/07/19 12:24:24;;;;;;;11.65;4.00;;;39.40;19.80;;;;;;5057499;28;20566;-74
2022/07/19 12:26:54;;;;;;;;;;;39.30;19.60;;;;;;5056045;28;20032;-75
2022/07/19 12:29:30;;;;;;;10.05;3.88;;;39.10;19.50;;;;;;5058310;28;20676;-75
2022/07/19 12:31:59;;;;;;;7.85;3.47;;;39.00;20.20;;;;;;5058868;28;20033;-75
2022/07/19 12:34:26;;;;;;;8.32;3.28;;;39.30;20.50;;;;;;5059654;28;20330;-75
2022/07/19 12:36:53;;;;;;;8.93;3.72;;;39.60;19.70;;;;;;5060654;28;20036;-74
2022/07/19 12:39:27;;;;;;;9.45;3.90;;;39.70;19.60;;;;;;5067694;28;20669;-75
2022/07/19 12:42:19;;;;;;;13.63;3.78;;;39.90;20.30;;;;;;5059159;28;20033;-74
2022/07/19 12:44:45;;;;;;;8.55;4.03;;;39.70;19.10;;;;;;5053359;28;20140;-74
2022/07/19 12:47:11;;;;;;;13.50;3.78;;;39.60;19.70;;;;;;5060755;28;20036;-77
2022/07/19 12:49:46;;;;;;;10.23;3.65;;;40.00;19.90;;;;;;5058879;28;20362;-74
2022/07/19 12:52:12;;;;;;;10.77;3.90;;;40.20;19.50;;;;;;5055654;28;20044;-74